Time;durP1;ratioP1;P1;durP2;ratioP2;P2;SDS_P1;SDS_P2;PMS_P1;PMS_P2;Temp;Humidity;BMP_temperature;BMP_pressure;BME280_temperature;BME280_humidity;BME280_pressure;Samples;Min_cycle;Max_cycle;Signal;HPM_P1;HPM_P2
2020/12/02 00:00:12;;;;;;;19.80;12.57;;;9.80;60.70;;;;;;5101817;28;20083;-66
2020/12/02 00:03:09;;;;;;;18.70;12.15;;;9.80;60.70;;;;;;5101792;28;20188;-66
2020/12/02 00:05:36;;;;;;;21.33;12.52;;;9.80;61.00;;;;;;5101468;28;20016;-65
2020/12/02 00:08:15;;;;;;;19.38;12.30;;;9.80;60.90;;;;;;5101781;28;20039;-66
2020/12/02 00:10:42;;;;;;;19.95;12.77;;;9.70;61.10;;;;;;5101718;28;20105;-66
2020/12/02 00:13:10;;;;;;;17.58;11.40;;;9.80;61.00;;;;;;5101618;28;20084;-66
2020/12/02 00:15:37;;;;;;;19.42;13.05;;;9.80;61.00;;;;;;5101879;28;20030;-66
2020/12/02 00:18:03;;;;;;;20.45;12.60;;;9.80;61.00;;;;;;5101625;28;20024;-66
2020/12/02 00:20:28;;;;;;;22.45;13.55;;;9.80;60.90;;;;;;5101806;28;20083;-67
2020/12/02 00:22:54;;;;;;;21.75;13.27;;;9.80;60.40;;;;;;5101584;28;20047;-67
2020/12/02 00:25:20;;;;;;;20.77;13.20;;;9.80;60.40;;;;;;5101473;28;20047;-66
2020/12/02 00:27:46;;;;;;;22.63;13.35;;;9.80;60.20;;;;;;5101456;28;20027;-64
2020/12/02 00:30:14;;;;;;;20.90;13.20;;;9.80;60.00;;;;;;5102492;28;20312;-66
2020/12/02 00:32:45;;;;;;;19.63;12.00;;;9.80;60.00;;;;;;5105134;28;20323;-66
2020/12/02 00:35:15;;;;;;;21.88;12.13;;;9.80;60.30;;;;;;5104967;28;20248;-67
2020/12/02 00:37:41;;;;;;;22.27;13.88;;;9.80;60.10;;;;;;5105014;28;20039;-66
2020/12/02 00:40:08;;;;;;;21.35;13.77;;;9.80;60.30;;;;;;5104898;28;20024;-65
2020/12/02 00:42:34;;;;;;;20.45;12.07;;;9.70;60.20;;;;;;5104889;28;20243;-67
2020/12/02 00:44:59;;;;;;;23.77;13.70;;;9.70;60.80;;;;;;5104832;28;20072;-67
2020/12/02 00:47:25;;;;;;;20.95;12.45;;;9.70;60.40;;;;;;5104789;28;20086;-65
2020/12/02 00:49:53;;;;;;;22.80;13.73;;;9.70;60.90;;;;;;5104759;28;20024;-67
2020/12/02 00:52:20;;;;;;;21.08;13.10;;;9.70;60.90;;;;;;5104647;28;20083;-66
2020/12/02 00:54:46;;;;;;;22.98;13.25;;;9.70;60.70;;;;;;5104729;28;20024;-66
2020/12/02 00:57:17;;;;;;;20.80;12.93;;;9.70;60.70;;;;;;5104602;28;20079;-67
2020/12/02 00:59:51;;;;;;;21.35;13.82;;;9.70;60.60;;;;;;5104621;28;20051;-67
2020/12/02 01:02:22;;;;;;;21.35;13.88;;;9.70;60.00;;;;;;5104570;28;20110;-67
2020/12/02 01:04:48;;;;;;;21.83;12.82;;;9.70;60.10;;;;;;5104437;28;20028;-66
2020/12/02 01:07:15;;;;;;;23.13;14.32;;;9.70;60.00;;;;;;5104221;28;20048;-66
2020/12/02 01:09:41;;;;;;;21.92;13.25;;;9.70;60.00;;;;;;5104394;28;20096;-66
2020/12/02 01:12:15;;;;;;;22.27;12.98;;;9.70;60.10;;;;;;5104330;28;20316;-64
2020/12/02 01:14:42;;;;;;;20.77;13.50;;;9.70;60.10;;;;;;5104295;28;20346;-66
2020/12/02 01:17:09;;;;;;;22.60;13.70;;;9.70;59.90;;;;;;5104234;28;20094;-65
2020/12/02 01:19:38;;;;;;;22.45;13.35;;;9.70;60.40;;;;;;5104212;28;20044;-67
2020/12/02 01:22:29;;;;;;;21.20;12.68;;;9.70;60.50;;;;;;5104136;28;20016;-66
2020/12/02 01:25:01;;;;;;;24.05;13.60;;;9.70;60.40;;;;;;5102890;28;20320;-67
2020/12/02 01:27:45;;;;;;;20.88;13.02;;;9.70;60.60;;;;;;5103905;28;20076;-65
2020/12/02 01:30:14;;;;;;;21.98;13.00;;;9.70;60.00;;;;;;5104020;28;20219;-67
2020/12/02 01:32:44;;;;;;;22.67;12.65;;;9.70;60.30;;;;;;5103941;28;20015;-66
2020/12/02 01:35:12;;;;;;;22.55;13.02;;;9.70;59.80;;;;;;5103851;28;20028;-67
2020/12/02 01:37:43;;;;;;;24.38;13.25;;;9.70;60.10;;;;;;5103813;28;20339;-66
2020/12/02 01:40:21;;;;;;;22.13;13.35;;;9.70;59.80;;;;;;5103794;28;20041;-66
2020/12/02 01:42:56;;;;;;;21.67;13.43;;;9.70;59.80;;;;;;5103549;28;20023;-64
2020/12/02 01:45:26;;;;;;;18.80;12.13;;;9.70;60.20;;;;;;5103748;28;20027;-66
2020/12/02 01:48:29;;;;;;;23.65;13.27;;;9.70;59.80;;;;;;5103599;28;20079;-67
2020/12/02 01:51:18;;;;;;;20.02;12.48;;;9.70;60.10;;;;;;5103612;28;20260;-66
2020/12/02 01:53:46;;;;;;;21.75;13.55;;;9.60;60.00;;;;;;5103625;28;20024;-67
2020/12/02 01:56:27;;;;;;;19.75;13.15;;;9.60;60.10;;;;;;5103533;28;20024;-67
2020/12/02 01:59:20;;;;;;;22.02;13.75;;;9.70;60.30;;;;;;5103487;28;20032;-66
2020/12/02 02:02:04;;;;;;;22.42;13.32;;;9.60;60.00;;;;;;5103400;28;20027;-66
2020/12/02 02:04:50;;;;;;;23.67;14.23;;;9.60;59.80;;;;;;5103300;28;20028;-67
2020/12/02 02:07:21;;;;;;;22.25;13.43;;;9.60;59.70;;;;;;5099016;28;20347;-67
2020/12/02 02:09:49;;;;;;;21.92;13.52;;;9.60;59.60;;;;;;5103211;28;20023;-66
2020/12/02 02:12:39;;;;;;;22.10;13.43;;;9.60;59.80;;;;;;5103176;28;20086;-66
2020/12/02 02:15:33;;;;;;;21.02;13.68;;;9.60;59.80;;;;;;5103161;28;20245;-65
2020/12/02 02:18:04;;;;;;;23.50;13.18;;;9.60;60.00;;;;;;5103039;28;20031;-67
2020/12/02 02:20:36;;;;;;;21.10;13.93;;;9.60;59.70;;;;;;5103008;28;20043;-67
2020/12/02 02:23:03;;;;;;;23.05;14.15;;;9.60;59.90;;;;;;5103021;28;20240;-66
2020/12/02 02:25:29;;;;;;;19.30;11.65;;;9.60;60.00;;;;;;5102897;28;20055;-65
2020/12/02 02:27:58;;;;;;;21.48;13.27;;;9.60;59.90;;;;;;5102853;28;20072;-67
2020/12/02 02:30:24;;;;;;;22.83;12.82;;;9.60;60.10;;;;;;5102886;28;20023;-67
2020/12/02 02:32:51;;;;;;;19.88;13.32;;;9.60;60.20;;;;;;5102741;28;20020;-67
2020/12/02 02:35:17;;;;;;;20.50;12.38;;;9.60;60.20;;;;;;5102701;28;20083;-64
2020/12/02 02:37:43;;;;;;;20.83;13.70;;;9.60;59.40;;;;;;5102770;28;20099;-66
2020/12/02 02:40:11;;;;;;;19.05;12.48;;;9.60;60.10;;;;;;5102602;28;20035;-66
2020/12/02 02:42:49;;;;;;;23.02;14.30;;;9.60;59.70;;;;;;5102837;28;20020;-65
2020/12/02 02:45:15;;;;;;;22.92;14.15;;;9.60;59.90;;;;;;5102607;28;20020;-66
2020/12/02 02:47:41;;;;;;;23.05;13.57;;;9.60;59.80;;;;;;5102431;28;20031;-66
2020/12/02 02:50:12;;;;;;;20.80;13.25;;;9.60;59.90;;;;;;5102499;28;20012;-65
2020/12/02 02:52:42;;;;;;;23.88;14.02;;;9.60;60.00;;;;;;5101821;28;20020;-66
2020/12/02 02:55:15;;;;;;;20.88;12.57;;;9.60;59.70;;;;;;5102403;28;20012;-66
2020/12/02 02:57:42;;;;;;;23.33;14.32;;;9.60;59.90;;;;;;5102427;28;20023;-66
2020/12/02 03:00:12;;;;;;;20.17;12.55;;;9.60;59.90;;;;;;5102358;28;20027;-66
2020/12/02 03:02:39;;;;;;;24.90;14.02;;;9.60;60.10;;;;;;5102377;28;20028;-65
2020/12/02 03:05:06;;;;;;;21.83;13.13;;;9.60;60.00;;;;;;5102008;28;20051;-67
2020/12/02 03:07:32;;;;;;;20.58;12.93;;;9.60;59.70;;;;;;5102088;28;20121;-67
2020/12/02 03:09:57;;;;;;;24.17;14.20;;;9.60;59.90;;;;;;5102273;28;20028;-66
2020/12/02 03:12:24;;;;;;;23.05;14.02;;;9.60;59.90;;;;;;5102239;28;20020;-66
2020/12/02 03:14:51;;;;;;;24.13;14.90;;;9.60;59.80;;;;;;5102178;28;20026;-66
2020/12/02 03:17:22;;;;;;;23.80;14.05;;;9.60;59.90;;;;;;5102132;28;20042;-65
2020/12/02 03:19:53;;;;;;;24.58;13.88;;;9.60;59.80;;;;;;5102128;28;20020;-67
2020/12/02 03:22:22;;;;;;;26.42;15.40;;;9.60;59.50;;;;;;5102137;28;20016;-67
2020/12/02 03:24:51;;;;;;;23.85;14.10;;;9.60;59.80;;;;;;5102061;28;20205;-67
2020/12/02 03:27:17;;;;;;;25.15;14.80;;;9.60;59.90;;;;;;5101960;28;20028;-66
2020/12/02 03:29:43;;;;;;;22.95;14.27;;;9.60;60.20;;;;;;5102103;28;20327;-66
2020/12/02 03:32:09;;;;;;;25.38;15.40;;;9.50;60.50;;;;;;5101980;28;20028;-67
2020/12/02 03:34:35;;;;;;;21.75;13.70;;;9.50;60.40;;;;;;5102071;28;20008;-66
2020/12/02 03:37:00;;;;;;;24.33;14.60;;;9.60;60.20;;;;;;5101990;28;20032;-69
2020/12/02 03:39:26;;;;;;;26.92;15.23;;;9.50;60.50;;;;;;5101951;28;20338;-67
2020/12/02 03:41:52;;;;;;;24.70;14.75;;;9.60;60.20;;;;;;5101978;28;20024;-67
2020/12/02 03:44:18;;;;;;;29.08;16.65;;;9.60;59.90;;;;;;5101935;28;20028;-66
2020/12/02 03:46:43;;;;;;;27.20;15.98;;;9.60;59.90;;;;;;5101866;28;20381;-67
2020/12/02 03:49:09;;;;;;;24.48;13.68;;;9.60;59.80;;;;;;5101869;28;20071;-66
2020/12/02 03:51:36;;;;;;;25.98;16.00;;;9.60;59.90;;;;;;5101856;28;20016;-66
2020/12/02 03:54:03;;;;;;;28.60;16.08;;;9.60;59.80;;;;;;5101890;28;20024;-67
2020/12/02 03:56:28;;;;;;;26.67;15.57;;;9.60;59.70;;;;;;5101794;28;20022;-66
2020/12/02 03:58:54;;;;;;;28.45;16.42;;;9.60;59.80;;;;;;5101815;28;20020;-67
2020/12/02 04:01:20;;;;;;;29.30;15.63;;;9.60;59.90;;;;;;5101778;28;20028;-66
2020/12/02 04:03:46;;;;;;;27.77;16.75;;;9.50;59.90;;;;;;5102180;28;20050;-65
2020/12/02 04:06:12;;;;;;;26.20;15.18;;;9.50;59.90;;;;;;5105364;28;20112;-67
2020/12/02 04:08:39;;;;;;;23.58;14.30;;;9.50;60.20;;;;;;5105612;28;20035;-66
2020/12/02 04:11:05;;;;;;;26.00;15.10;;;9.50;60.10;;;;;;5105549;28;20220;-65
2020/12/02 04:13:32;;;;;;;28.40;15.50;;;9.50;60.00;;;;;;5105465;28;20024;-66
2020/12/02 04:15:58;;;;;;;25.73;14.93;;;9.50;59.80;;;;;;5105400;28;20050;-66
2020/12/02 04:18:24;;;;;;;23.55;15.05;;;9.50;59.60;;;;;;5105450;28;20212;-66
2020/12/02 04:20:49;;;;;;;24.25;14.32;;;9.50;60.00;;;;;;5105324;28;20040;-66
2020/12/02 04:23:18;;;;;;;25.33;14.48;;;9.50;59.60;;;;;;5105352;28;20027;-66
2020/12/02 04:25:44;;;;;;;26.83;16.60;;;9.50;59.50;;;;;;5105228;28;20062;-67
2020/12/02 04:28:09;;;;;;;26.85;14.85;;;9.50;59.60;;;;;;5105207;28;20075;-67
2020/12/02 04:30:35;;;;;;;23.67;15.18;;;9.50;59.60;;;;;;5105153;28;20537;-67
2020/12/02 04:33:01;;;;;;;24.88;15.25;;;9.50;59.70;;;;;;5105105;28;20058;-66
2020/12/02 04:35:26;;;;;;;24.88;14.48;;;9.50;59.70;;;;;;5105084;28;20277;-65
2020/12/02 04:37:52;;;;;;;25.05;15.27;;;9.50;59.90;;;;;;5105028;28;20043;-66
2020/12/02 04:40:44;;;;;;;24.58;14.43;;;9.50;59.80;;;;;;5104996;28;20020;-67
2020/12/02 04:43:23;;;;;;;25.38;14.82;;;9.50;59.80;;;;;;5103710;28;20036;-67
2020/12/02 04:45:49;;;;;;;26.05;15.77;;;9.50;60.00;;;;;;5104761;28;20012;-67
2020/12/02 04:48:19;;;;;;;24.98;15.25;;;9.50;59.80;;;;;;5104856;28;20432;-65
2020/12/02 04:50:45;;;;;;;25.30;15.65;;;9.50;59.40;;;;;;5104869;28;20020;-65
2020/12/02 04:53:16;;;;;;;26.13;15.45;;;9.50;59.50;;;;;;5104718;28;20066;-66
2020/12/02 04:55:43;;;;;;;25.25;16.65;;;9.50;59.60;;;;;;5104705;28;20036;-67
2020/12/02 04:58:28;;;;;;;25.75;16.05;;;9.50;59.40;;;;;;5104574;28;20061;-66
2020/12/02 05:01:11;;;;;;;24.35;15.57;;;9.50;59.60;;;;;;5104624;28;20083;-67
2020/12/02 05:03:54;;;;;;;28.38;15.98;;;9.50;59.70;;;;;;5104510;28;20012;-66
2020/12/02 05:06:36;;;;;;;24.77;14.88;;;9.50;59.50;;;;;;5104204;28;20036;-67
2020/12/02 05:09:20;;;;;;;25.73;15.35;;;9.50;59.40;;;;;;5104474;28;20016;-68
2020/12/02 05:12:13;;;;;;;25.20;15.48;;;9.50;59.90;;;;;;5104401;28;20032;-64
2020/12/02 05:14:44;;;;;;;27.58;15.93;;;9.50;59.40;;;;;;5104302;28;20016;-65
2020/12/02 05:17:16;;;;;;;25.67;15.32;;;9.50;59.50;;;;;;5103593;28;20215;-66
2020/12/02 05:19:42;;;;;;;23.90;15.13;;;9.50;59.60;;;;;;5104230;28;20078;-67
2020/12/02 05:22:13;;;;;;;26.77;15.90;;;9.50;59.50;;;;;;5104178;28;20028;-66
2020/12/02 05:24:49;;;;;;;27.25;15.95;;;9.50;59.20;;;;;;5102906;28;20192;-67
2020/12/02 05:27:21;;;;;;;26.70;15.32;;;9.50;59.50;;;;;;5104013;28;20035;-67
2020/12/02 05:29:55;;;;;;;23.50;14.63;;;9.40;59.40;;;;;;5104077;28;20012;-66
2020/12/02 05:32:27;;;;;;;25.85;15.05;;;9.40;59.10;;;;;;5104004;28;20023;-66
2020/12/02 05:34:53;;;;;;;25.15;14.38;;;9.40;59.40;;;;;;5102608;28;20028;-66
2020/12/02 05:37:40;;;;;;;28.08;16.00;;;9.50;59.40;;;;;;5102643;28;20020;-67
2020/12/02 05:40:14;;;;;;;22.60;14.25;;;9.50;59.30;;;;;;5103908;28;20121;-65
2020/12/02 05:42:51;;;;;;;28.15;16.38;;;9.40;59.40;;;;;;5103764;28;20015;-67
2020/12/02 05:45:18;;;;;;;23.63;15.63;;;9.40;59.50;;;;;;5103705;28;20020;-64
2020/12/02 05:47:49;;;;;;;25.92;15.38;;;9.50;59.40;;;;;;5103606;28;20020;-66
2020/12/02 05:50:16;;;;;;;30.35;16.45;;;9.40;59.50;;;;;;5103672;28;20312;-65
2020/12/02 05:52:45;;;;;;;25.10;15.18;;;9.40;59.20;;;;;;5103552;28;20043;-67
2020/12/02 05:55:37;;;;;;;24.30;15.18;;;9.40;59.20;;;;;;5103530;28;20255;-65
2020/12/02 05:58:09;;;;;;;25.80;15.13;;;9.40;58.80;;;;;;5102167;28;20254;-66
2020/12/02 06:00:35;;;;;;;24.05;14.93;;;9.40;59.20;;;;;;5103421;28;20020;-65
2020/12/02 06:03:01;;;;;;;29.75;17.35;;;9.40;59.10;;;;;;5103336;28;20027;-66
2020/12/02 06:05:29;;;;;;;25.85;15.48;;;9.40;59.20;;;;;;5103317;28;20051;-66
2020/12/02 06:07:58;;;;;;;24.48;15.00;;;9.40;59.10;;;;;;5103233;28;20066;-65
2020/12/02 06:10:49;;;;;;;25.65;14.93;;;9.40;59.20;;;;;;5103291;28;20030;-66
2020/12/02 06:13:38;;;;;;;24.85;15.57;;;9.40;59.30;;;;;;5102011;28;20051;-65
2020/12/02 06:16:04;;;;;;;26.70;15.60;;;9.40;59.10;;;;;;5103171;28;20055;-67
2020/12/02 06:18:35;;;;;;;26.20;15.32;;;9.40;59.00;;;;;;5103063;28;20020;-66
2020/12/02 06:21:02;;;;;;;26.70;15.93;;;9.40;59.40;;;;;;5103060;28;20028;-65
2020/12/02 06:23:49;;;;;;;24.27;14.30;;;9.40;59.40;;;;;;5102976;28;20024;-66
2020/12/02 06:26:33;;;;;;;25.05;15.43;;;9.40;59.50;;;;;;5102943;28;20241;-66
2020/12/02 06:28:59;;;;;;;26.50;15.80;;;9.40;59.40;;;;;;5101963;28;20012;-67
2020/12/02 06:31:28;;;;;;;25.25;15.55;;;9.40;58.90;;;;;;5102886;28;20020;-66
2020/12/02 06:33:55;;;;;;;27.37;15.70;;;9.40;58.90;;;;;;5102855;28;20012;-67
2020/12/02 06:36:32;;;;;;;23.75;14.00;;;9.40;58.90;;;;;;5102749;28;20020;-66
2020/12/02 06:39:24;;;;;;;24.95;14.95;;;9.40;59.10;;;;;;5102741;28;20050;-66
2020/12/02 06:41:50;;;;;;;25.90;14.98;;;9.40;59.10;;;;;;5102666;28;20022;-66
2020/12/02 06:44:18;;;;;;;24.90;15.00;;;9.40;59.10;;;;;;5102662;28;20032;-66
2020/12/02 06:47:13;;;;;;;26.10;16.00;;;9.40;59.00;;;;;;5102808;28;20054;-67
2020/12/02 06:49:39;;;;;;;27.00;15.50;;;9.40;58.90;;;;;;5102553;28;20047;-66
2020/12/02 06:52:07;;;;;;;27.45;15.98;;;9.40;59.30;;;;;;5102548;28;20016;-66
2020/12/02 06:54:36;;;;;;;25.42;14.85;;;9.40;59.00;;;;;;5102490;28;20020;-66
2020/12/02 06:57:24;;;;;;;25.65;16.10;;;9.40;58.70;;;;;;5102444;28;20051;-66
2020/12/02 06:59:56;;;;;;;27.17;16.58;;;9.40;59.10;;;;;;5102665;28;20035;-66
2020/12/02 07:02:42;;;;;;;30.15;17.77;;;9.40;58.70;;;;;;5102450;28;20015;-66
2020/12/02 07:05:23;;;;;;;26.48;15.98;;;9.40;58.80;;;;;;5102297;28;20330;-65
2020/12/02 07:08:00;;;;;;;29.08;17.77;;;9.40;58.60;;;;;;5100900;28;20072;-66
2020/12/02 07:10:26;;;;;;;30.10;17.60;;;9.40;58.40;;;;;;5102308;28;20045;-65
2020/12/02 07:12:54;;;;;;;32.10;18.95;;;9.40;58.60;;;;;;5102290;28;20230;-66
2020/12/02 07:15:22;;;;;;;34.30;18.45;;;9.40;58.70;;;;;;5102238;28;20023;-66
2020/12/02 07:17:48;;;;;;;29.98;18.20;;;9.40;58.90;;;;;;5102188;28;20069;-66
2020/12/02 07:20:16;;;;;;;30.23;17.17;;;9.40;58.60;;;;;;5102191;28;20024;-66
2020/12/02 07:23:02;;;;;;;28.27;16.70;;;9.40;58.80;;;;;;5102116;28;20327;-66
2020/12/02 07:25:28;;;;;;;33.38;19.10;;;9.40;58.60;;;;;;5102006;28;20055;-67
2020/12/02 07:27:54;;;;;;;29.50;17.63;;;9.40;58.50;;;;;;5102110;28;20049;-66
2020/12/02 07:30:22;;;;;;;31.13;18.35;;;9.40;58.70;;;;;;5102035;28;20024;-65
2020/12/02 07:32:48;;;;;;;29.02;17.45;;;9.40;58.50;;;;;;5102311;28;20047;-66
2020/12/02 07:35:17;;;;;;;28.15;17.17;;;9.40;58.40;;;;;;5102064;28;20066;-67
2020/12/02 07:37:42;;;;;;;29.52;16.50;;;9.40;58.20;;;;;;5102047;28;20276;-66
2020/12/02 07:40:30;;;;;;;29.65;18.08;;;9.50;58.30;;;;;;5104765;28;20024;-67
2020/12/02 07:42:56;;;;;;;28.20;16.80;;;9.50;58.30;;;;;;5106151;28;20035;-64
2020/12/02 07:45:32;;;;;;;27.95;17.13;;;9.50;58.50;;;;;;5106073;28;20343;-65
2020/12/02 07:48:03;;;;;;;30.92;18.55;;;9.50;58.20;;;;;;5105939;28;20073;-66
2020/12/02 07:50:36;;;;;;;26.75;17.38;;;9.50;58.20;;;;;;5105941;28;20016;-65
2020/12/02 07:53:12;;;;;;;30.88;17.58;;;9.60;58.20;;;;;;5106207;28;20016;-66
2020/12/02 07:55:43;;;;;;;34.08;20.42;;;9.60;58.00;;;;;;5105852;28;20050;-66
2020/12/02 07:58:33;;;;;;;30.73;17.80;;;9.60;57.80;;;;;;5105805;28;20020;-66
2020/12/02 08:01:05;;;;;;;32.15;18.63;;;9.60;58.00;;;;;;5105360;28;20099;-66
2020/12/02 08:03:34;;;;;;;32.63;19.30;;;9.60;58.40;;;;;;5104461;28;20197;-66
2020/12/02 08:06:26;;;;;;;30.80;17.95;;;9.60;58.40;;;;;;5105403;28;20051;-66
2020/12/02 08:08:52;;;;;;;28.73;17.17;;;9.70;58.30;;;;;;5102423;28;20039;-66
2020/12/02 08:11:18;;;;;;;31.75;19.23;;;9.70;58.10;;;;;;5105530;28;20091;-64
2020/12/02 08:13:53;;;;;;;27.88;17.45;;;9.70;58.00;;;;;;5105580;28;20048;-66
2020/12/02 08:16:30;;;;;;;30.80;18.20;;;9.70;58.30;;;;;;5105488;28;20065;-65
2020/12/02 08:18:57;;;;;;;31.67;18.00;;;9.80;58.00;;;;;;5105435;28;20088;-65
2020/12/02 08:21:27;;;;;;;28.88;17.58;;;9.70;58.10;;;;;;5105388;28;20028;-65
2020/12/02 08:24:22;;;;;;;30.92;18.15;;;9.70;58.20;;;;;;5105300;28;20072;-65
2020/12/02 08:26:51;;;;;;;30.58;17.60;;;9.80;58.30;;;;;;5105229;28;20091;-66
2020/12/02 08:29:23;;;;;;;32.35;18.58;;;9.80;58.40;;;;;;5105202;28;20016;-65
2020/12/02 08:32:22;;;;;;;31.60;19.08;;;9.90;58.40;;;;;;5105134;28;20023;-66
2020/12/02 08:34:48;;;;;;;33.83;19.55;;;9.90;58.10;;;;;;5105406;28;20197;-65
2020/12/02 08:37:22;;;;;;;32.97;18.55;;;9.90;58.10;;;;;;5105066;28;20091;-66
2020/12/02 08:39:53;;;;;;;30.00;17.83;;;9.90;58.10;;;;;;5105016;28;20328;-65
2020/12/02 08:42:31;;;;;;;33.20;18.92;;;9.90;58.20;;;;;;5104972;28;20085;-66
2020/12/02 08:45:10;;;;;;;29.77;17.47;;;10.00;59.00;;;;;;5104896;28;20027;-65
2020/12/02 08:47:36;;;;;;;29.20;17.55;;;10.00;58.00;;;;;;5104867;28;20691;-65
2020/12/02 08:50:05;;;;;;;29.42;17.55;;;10.00;58.00;;;;;;5104458;28;20058;-66
2020/12/02 08:52:30;;;;;;;25.95;15.70;;;10.00;58.40;;;;;;5104136;28;20031;-65
2020/12/02 08:54:56;;;;;;;27.50;16.08;;;10.00;59.10;;;;;;5104720;28;20020;-65
2020/12/02 08:57:22;;;;;;;28.50;16.17;;;10.10;59.80;;;;;;5104712;28;20115;-66
2020/12/02 08:59:48;;;;;;;24.73;16.20;;;10.20;59.70;;;;;;5104637;28;20031;-66
2020/12/02 09:02:16;;;;;;;28.15;15.68;;;10.20;58.70;;;;;;5104607;28;20387;-65
2020/12/02 09:04:43;;;;;;;26.20;15.60;;;10.10;58.10;;;;;;5104597;28;20024;-66
2020/12/02 09:07:09;;;;;;;25.30;16.20;;;10.10;58.10;;;;;;5104226;28;20066;-65
2020/12/02 09:09:35;;;;;;;28.75;17.15;;;10.10;58.20;;;;;;5104549;28;20016;-66
2020/12/02 09:12:01;;;;;;;26.70;15.85;;;10.00;58.50;;;;;;5104371;28;20028;-65
2020/12/02 09:14:26;;;;;;;25.83;16.00;;;10.10;58.50;;;;;;5104376;28;20026;-65
2020/12/02 09:16:52;;;;;;;26.23;16.00;;;10.10;58.90;;;;;;5104603;28;20028;-66
2020/12/02 09:19:18;;;;;;;25.80;16.08;;;10.10;58.40;;;;;;5104255;28;20367;-65
2020/12/02 09:21:46;;;;;;;27.33;16.67;;;10.20;58.20;;;;;;5104294;28;20042;-66
2020/12/02 09:24:16;;;;;;;24.52;15.18;;;10.20;58.80;;;;;;5104450;28;20227;-66
2020/12/02 09:26:42;;;;;;;23.35;15.32;;;10.20;57.70;;;;;;5104074;28;20036;-66
2020/12/02 09:29:12;;;;;;;28.05;17.65;;;10.20;58.50;;;;;;5104083;28;20259;-65
2020/12/02 09:31:39;;;;;;;22.83;14.18;;;10.10;58.60;;;;;;5104302;28;20179;-66
2020/12/02 09:34:06;;;;;;;22.67;14.60;;;10.10;58.50;;;;;;5103999;28;20216;-65
2020/12/02 09:36:33;;;;;;;25.55;15.57;;;10.10;58.70;;;;;;5103919;28;20067;-67
2020/12/02 09:38:59;;;;;;;22.08;14.80;;;10.10;58.40;;;;;;5103868;28;20037;-67
2020/12/02 09:41:34;;;;;;;25.02;15.15;;;10.10;58.20;;;;;;5103827;28;20020;-66
2020/12/02 09:44:19;;;;;;;25.90;15.02;;;10.20;58.20;;;;;;5103826;28;20054;-66
2020/12/02 09:46:52;;;;;;;24.48;15.23;;;10.10;58.20;;;;;;5103758;28;20510;-67
2020/12/02 09:49:18;;;;;;;22.55;14.88;;;10.20;58.30;;;;;;5103673;28;20087;-67
2020/12/02 09:51:52;;;;;;;26.55;16.10;;;10.20;58.20;;;;;;5103677;28;20344;-66
2020/12/02 09:54:18;;;;;;;22.75;14.30;;;10.20;58.30;;;;;;5103643;28;20068;-67
2020/12/02 09:56:45;;;;;;;23.08;15.27;;;10.20;58.40;;;;;;5103632;28;20081;-66
2020/12/02 09:59:12;;;;;;;25.45;15.00;;;10.20;58.40;;;;;;5103505;28;20261;-66
2020/12/02 10:02:09;;;;;;;22.23;14.75;;;10.20;58.60;;;;;;5103250;28;20084;-66
2020/12/02 10:04:57;;;;;;;21.95;14.80;;;10.20;58.50;;;;;;5103481;28;20016;-65
2020/12/02 10:07:35;;;;;;;24.30;14.57;;;10.20;59.20;;;;;;5103181;28;20058;-65
2020/12/02 10:10:21;;;;;;;23.08;14.57;;;10.20;58.60;;;;;;5103328;28;20031;-64
2020/12/02 10:13:05;;;;;;;23.48;14.90;;;10.20;58.50;;;;;;5103314;28;20057;-65
2020/12/02 10:16:02;;;;;;;25.20;14.35;;;10.20;58.40;;;;;;5103229;28;20012;-67
2020/12/02 10:19:02;;;;;;;22.90;14.68;;;10.20;58.50;;;;;;5103171;28;20100;-65
2020/12/02 10:21:47;;;;;;;23.33;15.05;;;10.30;58.70;;;;;;5103109;28;20094;-65
2020/12/02 10:24:31;;;;;;;21.67;13.68;;;10.20;58.40;;;;;;5103127;28;20080;-66
2020/12/02 10:27:20;;;;;;;22.80;13.68;;;10.30;58.20;;;;;;5102928;28;20020;-65
2020/12/02 10:30:08;;;;;;;21.80;14.90;;;10.20;58.70;;;;;;5103099;28;20035;-66
2020/12/02 10:33:00;;;;;;;20.88;13.57;;;10.20;58.20;;;;;;5102994;28;20028;-66
2020/12/02 10:35:29;;;;;;;24.25;14.48;;;10.10;58.70;;;;;;5102913;28;20331;-67
2020/12/02 10:37:59;;;;;;;23.70;14.68;;;10.10;58.90;;;;;;5102871;28;20028;-66
2020/12/02 10:40:34;;;;;;;24.55;14.75;;;10.10;58.70;;;;;;5102833;28;20050;-67
2020/12/02 10:43:31;;;;;;;21.33;13.70;;;10.20;59.00;;;;;;5102762;28;20361;-66
2020/12/02 10:46:01;;;;;;;23.73;14.23;;;10.30;59.50;;;;;;5102670;28;20031;-66
2020/12/02 10:48:48;;;;;;;21.25;13.55;;;10.20;59.60;;;;;;5102656;28;20075;-65
2020/12/02 10:51:13;;;;;;;22.02;13.23;;;10.30;58.70;;;;;;5102704;28;20032;-66
2020/12/02 10:53:42;;;;;;;21.98;14.57;;;10.30;58.50;;;;;;5102494;28;20019;-67
2020/12/02 10:56:08;;;;;;;21.90;14.23;;;10.30;58.90;;;;;;5102554;28;20323;-66
2020/12/02 10:58:34;;;;;;;23.50;14.13;;;10.20;59.20;;;;;;5102601;28;20054;-67
2020/12/02 11:01:02;;;;;;;22.15;14.32;;;10.20;58.80;;;;;;5102462;28;20016;-67
2020/12/02 11:03:33;;;;;;;21.10;13.73;;;10.20;58.90;;;;;;5102450;28;20035;-66
2020/12/02 11:06:22;;;;;;;21.58;13.70;;;10.20;58.80;;;;;;5102192;28;20052;-67
2020/12/02 11:09:11;;;;;;;23.33;14.05;;;10.20;58.70;;;;;;5102369;28;20082;-65
2020/12/02 11:11:37;;;;;;;20.83;13.80;;;10.20;59.20;;;;;;5102359;28;20022;-64
2020/12/02 11:14:15;;;;;;;22.88;13.85;;;10.20;58.80;;;;;;5101812;28;20051;-66
2020/12/02 11:17:15;;;;;;;25.90;13.77;;;10.20;58.60;;;;;;5102319;28;20034;-66
2020/12/02 11:20:03;;;;;;;21.80;13.57;;;10.20;59.50;;;;;;5102278;28;20039;-65
2020/12/02 11:22:58;;;;;;;22.55;13.65;;;10.30;59.10;;;;;;5102158;28;20339;-65
2020/12/02 11:25:35;;;;;;;21.60;13.93;;;10.30;58.30;;;;;;5102301;28;20087;-65
2020/12/02 11:28:01;;;;;;;21.77;13.38;;;10.30;58.40;;;;;;5102059;28;20028;-66
2020/12/02 11:30:35;;;;;;;19.65;13.13;;;10.40;58.30;;;;;;5102167;28;20314;-64
2020/12/02 11:33:10;;;;;;;22.67;13.63;;;10.40;58.10;;;;;;5102178;28;20319;-67
2020/12/02 11:36:04;;;;;;;22.25;14.18;;;10.40;58.10;;;;;;5102143;28;20031;-66
2020/12/02 11:38:38;;;;;;;24.52;14.05;;;10.40;58.40;;;;;;5092027;28;20056;-67
2020/12/02 11:41:30;;;;;;;21.55;12.98;;;10.30;58.50;;;;;;5102117;28;20034;-65
2020/12/02 11:44:06;;;;;;;21.83;12.88;;;10.30;58.80;;;;;;5101893;28;20329;-66
2020/12/02 11:46:34;;;;;;;20.65;12.65;;;10.40;59.40;;;;;;5101974;28;20026;-66
2020/12/02 11:49:14;;;;;;;20.77;13.32;;;10.50;58.60;;;;;;5102035;28;20012;-66
2020/12/02 11:51:52;;;;;;;20.73;13.30;;;10.50;59.00;;;;;;5101965;28;20027;-66
2020/12/02 11:54:17;;;;;;;21.23;13.27;;;10.50;58.90;;;;;;5101966;28;20020;-66
2020/12/02 11:56:51;;;;;;;24.33;14.40;;;10.60;57.70;;;;;;5101951;28;20252;-66
2020/12/02 11:59:25;;;;;;;22.15;13.20;;;10.60;58.20;;;;;;5101934;28;20016;-66
2020/12/02 12:01:54;;;;;;;21.50;13.43;;;10.60;57.80;;;;;;5101852;28;20024;-64
2020/12/02 12:04:35;;;;;;;;;;;10.70;58.00;;;;;;5102272;28;20016;-66
2020/12/02 12:07:15;;;;;;;25.67;14.27;;;10.60;57.90;;;;;;5101570;28;20234;-64
2020/12/02 12:10:18;;;;;;;19.80;12.30;;;10.70;57.80;;;;;;5101815;28;20066;-66
2020/12/02 12:12:53;;;;;;;20.23;13.32;;;10.70;57.60;;;;;;5100407;28;20063;-66
2020/12/02 12:15:37;;;;;;;19.80;12.80;;;10.70;57.40;;;;;;5101705;28;20016;-66
2020/12/02 12:18:19;;;;;;;22.42;13.60;;;10.80;57.30;;;;;;5101817;28;20031;-66
2020/12/02 12:20:58;;;;;;;20.52;12.93;;;11.00;57.40;;;;;;5102035;28;20035;-67
2020/12/02 12:23:55;;;;;;;21.17;12.40;;;11.10;56.30;;;;;;5101766;28;20083;-66
2020/12/02 12:26:22;;;;;;;19.42;12.68;;;11.20;56.10;;;;;;5101130;28;20288;-66
2020/12/02 12:28:48;;;;;;;21.33;13.48;;;11.40;56.20;;;;;;5105341;28;20028;-66
2020/12/02 12:31:23;;;;;;;20.23;13.15;;;11.10;57.40;;;;;;5105287;28;20016;-66
2020/12/02 12:34:05;;;;;;;21.67;12.65;;;10.90;57.50;;;;;;5105259;28;20016;-66
2020/12/02 12:36:35;;;;;;;19.52;12.57;;;10.80;58.30;;;;;;5105185;28;20024;-66
2020/12/02 12:39:17;;;;;;;20.98;12.60;;;10.80;57.50;;;;;;5105083;28;20023;-64
2020/12/02 12:41:50;;;;;;;19.42;13.05;;;10.70;57.80;;;;;;5105138;28;20028;-67
2020/12/02 12:44:42;;;;;;;21.20;12.80;;;10.70;57.80;;;;;;5105070;28;20028;-64
2020/12/02 12:47:19;;;;;;;23.17;13.13;;;10.70;58.30;;;;;;5104650;28;20285;-67
2020/12/02 12:49:45;;;;;;;19.30;12.93;;;10.60;58.70;;;;;;5104998;28;20057;-67
2020/12/02 12:52:19;;;;;;;17.73;12.27;;;10.60;59.00;;;;;;5104920;28;20044;-67
2020/12/02 12:54:45;;;;;;;19.15;12.15;;;10.50;59.70;;;;;;5105429;28;20019;-66
2020/12/02 12:57:18;;;;;;;17.88;12.38;;;10.50;59.40;;;;;;5104792;28;20027;-66
2020/12/02 12:59:44;;;;;;;18.58;12.27;;;10.40;59.60;;;;;;5104701;28;20315;-67
2020/12/02 13:02:26;;;;;;;19.92;12.85;;;10.40;59.80;;;;;;5104690;28;20087;-67